Time;durP1;ratioP1;P1;durP2;ratioP2;P2;SDS_P1;SDS_P2;PMS_P1;PMS_P2;Temp;Humidity;BMP_temperature;BMP_pressure;BME280_temperature;BME280_humidity;BME280_pressure;Samples;Min_cycle;Max_cycle;Signal;HPM_P1;HPM_P2
2022/04/30 00:00:32;;;;;;;11.88;7.60;;;;;;;7.07;68.25;102820.88;5052807;28;20483;-61
2022/04/30 00:02:58;;;;;;;10.93;7.15;;;;;;;7.03;68.48;102817.47;5034405;28;20059;-61
2022/04/30 00:05:25;;;;;;;9.27;7.00;;;;;;;6.98;68.45;102819.38;5052385;28;20112;-61
2022/04/30 00:07:50;;;;;;;10.23;6.32;;;;;;;6.95;68.40;102819.47;5052183;28;20044;-61
2022/04/30 00:10:15;;;;;;;8.70;6.60;;;;;;;6.92;68.93;102819.56;5052202;28;20036;-61
2022/04/30 00:12:41;;;;;;;8.45;6.45;;;;;;;6.87;68.60;102816.19;5052286;28;20120;-60
2022/04/30 00:15:07;;;;;;;8.45;6.43;;;;;;;6.84;69.04;102817.16;5052045;28;20036;-60
2022/04/30 00:17:32;;;;;;;10.25;6.68;;;;;;;6.83;68.88;102814.56;5052234;28;20330;-59
2022/04/30 00:19:57;;;;;;;10.80;6.50;;;;;;;6.78;69.25;102819.13;5052038;28;20491;-60
2022/04/30 00:22:22;;;;;;;9.50;6.55;;;;;;;6.79;68.96;102818.19;5051888;28;20052;-60
2022/04/30 00:24:48;;;;;;;9.25;6.63;;;;;;;6.78;68.86;102817.31;5051795;28;20391;-59
2022/04/30 00:27:15;;;;;;;10.38;6.03;;;;;;;6.76;68.89;102819.16;5052155;28;20090;-60
2022/04/30 00:29:41;;;;;;;10.98;6.10;;;;;;;6.73;68.91;102816.59;5045552;28;20059;-60
2022/04/30 00:32:06;;;;;;;8.18;6.20;;;;;;;6.68;69.23;102818.50;5051938;28;20037;-60
2022/04/30 00:34:31;;;;;;;7.05;5.70;;;;;;;6.66;68.92;102817.66;5051609;28;20041;-60
2022/04/30 00:37:02;;;;;;;8.90;5.88;;;;;;;6.63;69.50;102818.63;5051794;28;20028;-60
2022/04/30 00:39:27;;;;;;;8.32;6.10;;;;;;;6.60;69.24;102821.34;5051394;28;20029;-62
2022/04/30 00:41:53;;;;;;;8.77;5.45;;;;;;;6.59;69.58;102818.75;5051668;28;20541;-59
2022/04/30 00:44:19;;;;;;;11.50;5.85;;;;;;;6.53;69.64;102813.63;5051563;28;20029;-60
2022/04/30 00:46:44;;;;;;;9.65;5.80;;;;;;;6.50;69.83;102804.03;5051438;28;20037;-59
2022/04/30 00:49:10;;;;;;;10.25;5.75;;;;;;;6.46;70.12;102810.28;5051374;28;20411;-60
2022/04/30 00:51:38;;;;;;;7.78;5.18;;;;;;;6.42;70.22;102809.53;5051271;28;20040;-60
2022/04/30 00:54:05;;;;;;;11.40;5.70;;;;;;;6.42;69.61;102796.31;5051436;28;20032;-60
2022/04/30 00:56:45;;;;;;;8.98;6.15;;;;;;;6.37;70.10;102803.50;5051380;28;20566;-60
2022/04/30 00:59:17;;;;;;;8.73;5.22;;;;;;;6.38;69.95;102797.34;5033739;28;20041;-60
2022/04/30 01:01:43;;;;;;;9.93;5.50;;;;;;;6.35;70.04;102800.06;5051395;28;20040;-59
2022/04/30 01:04:09;;;;;;;7.78;5.18;;;;;;;6.30;70.29;102796.66;5050987;28;20041;-60
2022/04/30 01:07:10;;;;;;;10.07;5.80;;;;;;;6.34;69.79;102797.44;5051209;28;20048;-60
2022/04/30 01:09:41;;;;;;;9.00;5.60;;;;;;;6.23;70.85;102803.03;5051013;28;20095;-60
2022/04/30 01:12:10;;;;;;;6.20;4.68;;;;;;;6.22;71.14;102803.94;5051220;28;20032;-59
2022/04/30 01:14:38;;;;;;;9.60;5.07;;;;;;;6.17;70.89;102801.41;5050993;28;20047;-59
2022/04/30 01:17:05;;;;;;;7.15;5.15;;;;;;;6.09;71.55;102795.47;5051331;28;20391;-60
2022/04/30 01:19:37;;;;;;;6.70;5.10;;;;;;;6.06;71.41;102796.44;5050668;28;20144;-60
2022/04/30 01:22:08;;;;;;;6.07;4.60;;;;;;;6.05;71.71;102799.97;5050831;28;20040;-60
2022/04/30 01:24:35;;;;;;;9.85;5.10;;;;;;;6.07;71.39;102802.56;5050873;28;20051;-60
2022/04/30 01:27:00;;;;;;;8.77;5.10;;;;;;;6.01;72.33;102790.41;5050611;28;20119;-60
2022/04/30 01:29:30;;;;;;;5.25;4.70;;;;;;;5.99;72.01;102794.84;5050393;28;20471;-59
2022/04/30 01:37:26;;;;;;;8.65;5.30;;;;;;;5.95;72.32;102789.66;5051008;28;20055;-61
2022/04/30 01:39:59;;;;;;;9.20;5.47;;;;;;;5.91;72.25;102788.84;5049834;28;20473;-61
2022/04/30 01:42:29;;;;;;;11.73;5.80;;;;;;;5.88;72.72;102786.31;5049355;28;20040;-61
2022/04/30 01:44:55;;;;;;;7.38;4.82;;;;;;;5.87;72.44;102785.44;5048509;28;20032;-61
2022/04/30 01:47:23;;;;;;;13.00;5.85;;;;;;;5.86;73.19;102788.09;5050321;28;20107;-61
2022/04/30 01:49:48;;;;;;;8.02;5.40;;;;;;;5.86;72.79;102785.47;5050268;28;20426;-61
2022/04/30 01:52:14;;;;;;;7.10;5.30;;;;;;;5.83;73.05;102781.16;5050319;28;20044;-61
2022/04/30 01:54:40;;;;;;;7.30;5.07;;;;;;;5.83;73.00;102782.91;5032448;28;20049;-61
2022/04/30 01:57:05;;;;;;;12.52;6.10;;;;;;;5.82;73.18;102782.06;5050561;28;20068;-61
2022/04/30 01:59:31;;;;;;;8.10;5.80;;;;;;;5.79;73.33;102784.75;5050060;28;20041;-61
2022/04/30 02:01:57;;;;;;;9.70;5.82;;;;;;;5.78;73.25;102784.81;5050411;28;20040;-61
2022/04/30 02:04:22;;;;;;;12.40;5.88;;;;;;;5.77;73.17;102776.03;5050727;28;20082;-61
2022/04/30 02:06:48;;;;;;;9.35;6.07;;;;;;;5.73;73.26;102772.63;5050061;28;20076;-61
2022/04/30 02:09:15;;;;;;;9.50;5.70;;;;;;;5.69;73.54;102775.34;5049801;28;20112;-61
2022/04/30 02:11:42;;;;;;;10.07;5.95;;;;;;;5.69;73.32;102772.72;5050189;28;20033;-60
2022/04/30 02:14:11;;;;;;;7.18;5.65;;;;;;;5.67;73.61;102767.47;5050274;28;20556;-61
2022/04/30 02:16:39;;;;;;;7.20;6.30;;;;;;;5.65;73.64;102768.44;5050537;28;20037;-60
2022/04/30 02:19:06;;;;;;;9.95;6.35;;;;;;;5.62;73.82;102764.09;5050566;28;20036;-61
2022/04/30 02:21:33;;;;;;;12.13;6.50;;;;;;;5.56;74.25;102762.50;5054055;28;20120;-61
2022/04/30 02:23:59;;;;;;;11.38;6.00;;;;;;;5.56;74.14;102761.59;5054252;28;20036;-61
2022/04/30 02:26:28;;;;;;;7.97;6.03;;;;;;;5.52;74.34;102768.72;5054262;28;20106;-61
2022/04/30 02:28:56;;;;;;;8.68;5.85;;;;;;;5.50;74.23;102767.91;5054250;28;20475;-61
2022/04/30 02:31:23;;;;;;;11.55;6.80;;;;;;;5.49;74.76;102762.66;5054463;28;20025;-60
2022/04/30 02:33:48;;;;;;;8.32;6.40;;;;;;;5.48;74.59;102760.94;5053901;28;20041;-59
2022/04/30 02:36:14;;;;;;;9.70;7.00;;;;;;;5.47;74.54;102754.81;5054025;28;20140;-60
2022/04/30 02:38:41;;;;;;;9.27;6.07;;;;;;;5.43;74.03;102753.16;5054139;28;20401;-61
2022/04/30 02:41:06;;;;;;;15.02;6.68;;;;;;;5.41;74.63;102756.72;5053804;28;20033;-62
2022/04/30 02:43:32;;;;;;;10.38;6.30;;;;;;;5.37;74.20;102758.56;5073510;28;20044;-61
2022/04/30 02:45:58;;;;;;;13.38;7.13;;;;;;;5.35;74.60;102765.66;5073815;28;20044;-61
2022/04/30 02:48:23;;;;;;;15.07;7.50;;;;;;;5.31;74.80;102753.44;5072394;28;20033;-61
2022/04/30 02:50:48;;;;;;;9.82;6.78;;;;;;;5.28;74.66;102748.22;5053710;28;20033;-61
2022/04/30 02:53:14;;;;;;;9.55;6.97;;;;;;;5.26;74.79;102758.84;5053587;28;20032;-61
2022/04/30 02:55:39;;;;;;;10.65;6.60;;;;;;;5.25;74.91;102761.50;5053700;28;20048;-61
2022/04/30 03:00:53;;;;;;;9.32;7.05;;;;;;;5.15;75.44;102752.94;5053383;28;20040;-61
2022/04/30 03:03:20;;;;;;;11.07;6.82;;;;;;;5.14;75.79;102756.47;5053597;28;20395;-61
2022/04/30 03:05:48;;;;;;;9.02;7.00;;;;;;;5.13;75.55;102752.09;5053514;28;20394;-61
2022/04/30 03:08:20;;;;;;;14.43;6.97;;;;;;;5.16;75.49;102759.94;5053634;28;20051;-61
2022/04/30 03:10:47;;;;;;;12.23;7.63;;;;;;;5.12;76.08;102761.78;5053668;28;20091;-61
2022/04/30 03:13:14;;;;;;;13.15;7.30;;;;;;;5.12;76.03;102763.53;5053837;28;20091;-61
2022/04/30 03:15:43;;;;;;;11.07;7.43;;;;;;;5.10;76.07;102760.09;5053058;28;20128;-61
2022/04/30 03:23:38;;;;;;;11.32;7.68;;;;;;;5.06;76.25;102754.00;5052956;28;20044;-61
2022/04/30 03:26:05;;;;;;;9.43;7.65;;;;;;;5.02;76.59;102752.34;5053005;28;20037;-61
2022/04/30 03:28:33;;;;;;;10.93;7.68;;;;;;;5.00;76.68;102746.25;5053085;28;20094;-61
2022/04/30 03:30:59;;;;;;;9.48;7.90;;;;;;;4.97;76.06;102749.81;5052734;28;20090;-61
2022/04/30 03:33:26;;;;;;;14.43;8.27;;;;;;;4.98;76.64;102746.28;5053019;28;20033;-60
2022/04/30 03:35:51;;;;;;;10.32;7.57;;;;;;;4.97;76.42;102747.19;5052944;28;20528;-61
2022/04/30 03:38:16;;;;;;;11.43;7.93;;;;;;;4.94;76.45;102735.84;5052721;28;20144;-61
2022/04/30 03:40:42;;;;;;;12.18;8.10;;;;;;;4.92;76.79;102735.88;5052588;28;20030;-61
2022/04/30 03:43:07;;;;;;;12.20;7.63;;;;;;;4.91;77.29;102736.81;5052861;28;20040;-61
2022/04/30 03:45:33;;;;;;;11.55;8.07;;;;;;;4.89;76.67;102733.31;5052851;28;20407;-62
2022/04/30 03:47:58;;;;;;;12.02;8.32;;;;;;;4.88;76.69;102734.25;5052821;28;20075;-61
2022/04/30 03:50:23;;;;;;;11.07;8.15;;;;;;;4.85;76.80;102738.72;5052606;28;20045;-61
2022/04/30 03:52:49;;;;;;;14.27;8.90;;;;;;;4.84;76.79;102729.06;5052241;28;20029;-61
2022/04/30 03:55:14;;;;;;;15.82;8.73;;;;;;;4.83;77.08;102733.47;5051459;28;20064;-61
2022/04/30 03:57:40;;;;;;;12.05;8.18;;;;;;;4.84;77.04;102734.34;5052776;28;20045;-61
2022/04/30 04:00:06;;;;;;;10.52;8.38;;;;;;;4.79;77.33;102732.66;5052277;28;20041;-61
2022/04/30 04:02:32;;;;;;;13.07;8.13;;;;;;;4.79;77.08;102737.06;5052303;28;20120;-61
2022/04/30 04:04:58;;;;;;;12.98;8.05;;;;;;;4.78;77.19;102735.31;5052259;28;20399;-61
2022/04/30 04:07:23;;;;;;;12.98;9.27;;;;;;;4.75;76.95;102735.41;5052215;28;20040;-61
2022/04/30 04:09:48;;;;;;;13.10;9.02;;;;;;;4.73;77.17;102738.06;5051921;28;20045;-61
2022/04/30 04:12:14;;;;;;;15.77;8.90;;;;;;;4.74;77.13;102739.78;5051699;28;20033;-61
2022/04/30 04:17:40;;;;;;;12.02;8.73;;;;;;;4.66;77.32;102736.44;5052058;28;20458;-61
2022/04/30 04:20:11;;;;;;;17.10;8.55;;;;;;;4.61;77.15;102736.56;5052016;28;20044;-61
2022/04/30 04:22:36;;;;;;;13.90;8.95;;;;;;;4.60;77.11;102736.59;5052251;28;20107;-61
2022/04/30 04:27:47;;;;;;;13.50;8.65;;;;;;;4.59;77.71;102733.09;5051895;28;20100;-61
2022/04/30 04:30:12;;;;;;;16.58;9.07;;;;;;;4.59;78.12;102737.50;5051893;28;20123;-61
2022/04/30 04:32:38;;;;;;;13.10;9.73;;;;;;;4.59;77.63;102740.97;5051733;28;20082;-61
2022/04/30 04:35:04;;;;;;;11.27;8.60;;;;;;;4.60;77.86;102747.13;5051965;28;20055;-61
2022/04/30 04:37:29;;;;;;;13.55;9.43;;;;;;;4.63;78.04;102747.06;5051643;28;20502;-61
2022/04/30 04:39:55;;;;;;;12.98;9.50;;;;;;;4.61;78.60;102744.47;5051814;28;20029;-61
2022/04/30 04:42:20;;;;;;;12.07;8.23;;;;;;;4.64;78.35;102748.78;5050917;28;20033;-61
2022/04/30 04:44:46;;;;;;;13.38;8.65;;;;;;;4.64;78.55;102749.63;5051662;28;20041;-61
2022/04/30 04:47:13;;;;;;;13.57;8.88;;;;;;;4.66;78.13;102746.13;5051342;28;20123;-61
2022/04/30 04:49:38;;;;;;;16.35;8.93;;;;;;;4.69;78.34;102751.31;5051507;28;20033;-61
2022/04/30 04:52:04;;;;;;;14.70;9.27;;;;;;;4.70;78.93;102758.34;5051356;28;20090;-61
2022/04/30 04:54:29;;;;;;;17.13;9.32;;;;;;;4.70;78.92;102760.97;5051559;28;20037;-61
2022/04/30 04:56:55;;;;;;;12.75;9.27;;;;;;;4.73;78.15;102763.50;5051227;28;20090;-61
2022/04/30 04:59:20;;;;;;;13.80;9.45;;;;;;;4.73;78.29;102767.03;5051835;28;20037;-61
2022/04/30 05:01:47;;;;;;;13.55;9.68;;;;;;;4.76;78.19;102772.22;5051160;28;20514;-61
2022/04/30 05:04:13;;;;;;;15.40;9.27;;;;;;;4.75;78.50;102773.13;5051486;28;20064;-62
2022/04/30 05:06:38;;;;;;;16.02;9.20;;;;;;;4.77;78.77;102775.72;5051300;28;20513;-62
2022/04/30 05:09:03;;;;;;;14.98;10.13;;;;;;;4.81;78.94;102772.09;5033416;28;20048;-62
2022/04/30 05:11:29;;;;;;;16.10;9.55;;;;;;;4.84;79.11;102779.09;5049216;28;20037;-62
2022/04/30 05:13:54;;;;;;;18.02;10.85;;;;;;;4.88;78.98;102778.09;5051621;28;20032;-61
2022/04/30 05:16:19;;;;;;;18.45;10.82;;;;;;;4.94;78.67;102775.34;5050998;28;20029;-61
2022/04/30 05:18:45;;;;;;;16.65;10.40;;;;;;;5.03;79.20;102784.81;5050761;28;20098;-62
2022/04/30 05:21:10;;;;;;;23.80;11.35;;;;;;;5.12;79.00;102782.00;5051007;28;20423;-62
2022/04/30 05:23:36;;;;;;;22.50;10.23;;;;;;;5.18;78.86;102777.44;5050855;28;20033;-60
2022/04/30 05:26:02;;;;;;;17.85;10.60;;;;;;;5.27;78.83;102779.00;5051134;28;20044;-61
2022/04/30 05:28:27;;;;;;;16.92;10.73;;;;;;;5.33;78.84;102773.59;5050666;28;20148;-62
2022/04/30 05:30:52;;;;;;;22.60;10.13;;;;;;;5.45;78.31;102782.13;5050766;28;20123;-62
2022/04/30 05:33:18;;;;;;;17.77;10.57;;;;;;;5.52;78.36;102776.63;5050770;28;20037;-62
2022/04/30 05:35:43;;;;;;;18.58;11.07;;;;;;;5.64;78.28;102772.84;5050540;28;20098;-62
2022/04/30 05:38:08;;;;;;;19.63;11.18;;;;;;;5.70;78.24;102780.59;5050676;28;20068;-62
2022/04/30 05:40:34;;;;;;;15.68;11.07;;;;;;;5.81;77.99;102777.69;5037825;28;20404;-61
2022/04/30 05:42:59;;;;;;;13.38;10.73;;;;;;;5.88;77.94;102781.06;5050608;28;20487;-61
2022/04/30 05:45:25;;;;;;;15.88;10.27;;;;;;;5.96;78.21;102776.44;5050175;28;20051;-62
2022/04/30 05:47:50;;;;;;;11.52;9.88;;;;;;;6.04;77.34;102774.47;5050528;28;20057;-62
2022/04/30 05:50:15;;;;;;;11.85;9.48;;;;;;;6.11;77.35;102778.69;5050458;28;20041;-62
2022/04/30 05:52:41;;;;;;;13.63;10.50;;;;;;;6.15;77.20;102786.53;5050251;28;20029;-62
2022/04/30 05:55:06;;;;;;;13.85;9.98;;;;;;;6.18;77.54;102779.41;5050492;28;20103;-62
2022/04/30 05:57:32;;;;;;;18.75;10.73;;;;;;;6.20;78.13;102782.84;5050343;28;20040;-62
2022/04/30 05:59:57;;;;;;;15.07;10.43;;;;;;;6.23;77.74;102785.41;5050102;28;20040;-62
2022/04/30 06:02:23;;;;;;;18.50;10.73;;;;;;;6.23;78.12;102792.47;5050506;28;20037;-61
2022/04/30 06:04:49;;;;;;;15.23;10.25;;;;;;;6.27;78.06;102784.41;5050417;28;20159;-62
2022/04/30 06:07:14;;;;;;;14.27;10.18;;;;;;;6.30;78.24;102786.97;5049976;28;20534;-62
2022/04/30 06:09:40;;;;;;;16.83;10.60;;;;;;;6.34;78.02;102785.09;5050335;28;20037;-62
2022/04/30 06:12:05;;;;;;;17.67;10.40;;;;;;;6.40;78.33;102784.94;5049904;28;20395;-62
2022/04/30 06:14:31;;;;;;;16.27;10.30;;;;;;;6.43;78.13;102784.88;5050120;28;20482;-62
2022/04/30 06:16:57;;;;;;;15.07;10.50;;;;;;;6.50;77.85;102785.56;5049842;28;20041;-62
2022/04/30 06:19:23;;;;;;;14.95;9.55;;;;;;;6.58;78.07;102793.28;5049960;28;20057;-61
2022/04/30 06:21:49;;;;;;;14.88;10.10;;;;;;;6.65;78.26;102793.03;5055374;28;20502;-62
2022/04/30 06:24:16;;;;;;;14.48;9.70;;;;;;;6.70;78.67;102790.28;5050230;28;20073;-62
2022/04/30 06:26:41;;;;;;;15.48;9.77;;;;;;;6.79;78.28;102794.41;5050132;28;20450;-62
2022/04/30 06:29:07;;;;;;;16.88;10.48;;;;;;;6.89;78.02;102784.44;5049822;28;20369;-63
2022/04/30 06:31:32;;;;;;;16.88;10.63;;;;;;;6.99;78.03;102784.09;5050141;28;20478;-63
2022/04/30 06:33:58;;;;;;;15.50;10.50;;;;;;;7.13;77.50;102788.13;5053169;28;20044;-63
2022/04/30 06:36:23;;;;;;;15.82;10.52;;;;;;;7.26;77.18;102793.88;5069721;28;20086;-63
2022/04/30 06:38:49;;;;;;;16.23;10.02;;;;;;;7.38;76.51;102791.72;5069273;28;20407;-63
2022/04/30 06:41:14;;;;;;;14.55;10.35;;;;;;;7.48;76.51;102791.44;5069259;28;20041;-63
2022/04/30 06:43:41;;;;;;;15.93;9.88;;;;;;;7.54;76.41;102789.47;5060385;28;20044;-63
2022/04/30 06:46:07;;;;;;;17.08;10.23;;;;;;;7.63;75.40;102777.72;5069510;28;20036;-63
2022/04/30 06:48:32;;;;;;;12.65;9.43;;;;;;;7.70;75.72;102786.31;5069317;28;20711;-63
2022/04/30 06:50:59;;;;;;;13.82;9.23;;;;;;;7.80;75.37;102786.88;5069022;28;20048;-63
2022/04/30 06:58:54;;;;;;;13.18;9.32;;;;;;;8.22;73.83;102781.00;5051233;28;20441;-63
2022/04/30 07:01:38;;;;;;;13.48;8.98;;;;;;;8.41;73.63;102778.53;5050997;28;20041;-63
2022/04/30 07:04:05;;;;;;;14.98;9.50;;;;;;;8.65;73.09;102790.06;5051340;28;20045;-63
2022/04/30 07:06:31;;;;;;;16.15;9.18;;;;;;;8.92;72.16;102785.50;5034867;28;20048;-64
2022/04/30 07:08:57;;;;;;;11.43;8.38;;;;;;;9.19;70.90;102783.56;5054383;28;20099;-63
2022/04/30 07:11:22;;;;;;;14.02;8.20;;;;;;;9.43;70.09;102784.34;5054857;28;20036;-63
2022/04/30 07:13:48;;;;;;;10.82;7.60;;;;;;;9.82;69.89;102780.09;5054119;28;20115;-63
2022/04/30 07:16:13;;;;;;;11.93;7.70;;;;;;;10.11;68.57;102784.19;5052975;28;20479;-63
2022/04/30 07:18:38;;;;;;;11.82;7.15;;;;;;;10.46;66.53;102781.78;5053958;28;20144;-63
2022/04/30 07:21:04;;;;;;;10.73;6.72;;;;;;;10.83;66.97;102773.91;5051442;28;20056;-63
2022/04/30 07:23:30;;;;;;;11.60;7.38;;;;;;;11.17;64.57;102782.94;5055634;28;20520;-63
2022/04/30 07:25:55;;;;;;;12.70;7.10;;;;;;;11.42;62.89;102785.28;5056132;28;20574;-63
2022/04/30 07:28:22;;;;;;;11.82;6.85;;;;;;;11.74;62.48;102773.03;5053906;28;20040;-64
2022/04/30 07:30:47;;;;;;;12.25;6.97;;;;;;;11.99;61.31;102778.00;5054203;28;20029;-64
2022/04/30 07:33:13;;;;;;;11.35;7.13;;;;;;;12.09;60.98;102773.06;5053761;28;20041;-64
2022/04/30 07:35:38;;;;;;;11.47;6.37;;;;;;;12.35;60.18;102782.31;5053884;28;20029;-64
2022/04/30 07:38:03;;;;;;;7.30;5.57;;;;;;;12.59;58.14;102773.97;5062586;28;20625;-64
2022/04/30 07:40:29;;;;;;;6.90;5.55;;;;;;;12.95;57.82;102776.38;5073718;28;20086;-64
2022/04/30 07:42:54;;;;;;;9.32;5.82;;;;;;;13.35;57.00;102769.78;5066847;28;20040;-64
2022/04/30 07:45:19;;;;;;;10.18;5.65;;;;;;;13.50;55.59;102772.41;5053661;28;20663;-62
2022/04/30 07:47:44;;;;;;;8.02;5.43;;;;;;;13.53;55.13;102758.03;5053537;28;20040;-62
2022/04/30 07:50:10;;;;;;;9.85;5.10;;;;;;;13.60;55.10;102767.41;5053342;28;20037;-64
2022/04/30 07:52:36;;;;;;;7.90;5.35;;;;;;;13.57;54.24;102766.72;5070614;28;20123;-63
2022/04/30 07:55:02;;;;;;;6.90;5.07;;;;;;;13.74;54.67;102763.06;5073473;28;20048;-63
2022/04/30 07:57:28;;;;;;;7.53;5.20;;;;;;;13.74;53.74;102765.72;5056507;28;20045;-63
2022/04/30 07:59:53;;;;;;;8.05;5.22;;;;;;;13.66;53.99;102761.72;5053144;28;20068;-64
2022/04/30 08:02:19;;;;;;;10.30;5.13;;;;;;;13.75;53.82;102751.44;5053195;28;20487;-64
2022/04/30 08:04:47;;;;;;;7.28;5.40;;;;;;;13.68;53.82;102756.28;5052998;28;20048;-64
2022/04/30 08:07:13;;;;;;;10.93;5.03;;;;;;;13.73;53.43;102751.53;5053145;28;20479;-64
2022/04/30 08:09:38;;;;;;;10.00;4.45;;;;;;;13.74;53.12;102755.03;5052993;28;20323;-64
2022/04/30 08:12:04;;;;;;;10.80;4.90;;;;;;;13.76;53.81;102754.00;5052560;28;20041;-63
2022/04/30 08:14:29;;;;;;;9.70;4.78;;;;;;;13.80;52.42;102755.53;5048030;28;20120;-63
2022/04/30 08:16:54;;;;;;;8.23;4.55;;;;;;;13.83;52.37;102758.03;5051454;28;20052;-64
2022/04/30 08:19:20;;;;;;;8.00;4.80;;;;;;;13.83;52.53;102755.34;5054354;28;20067;-64
2022/04/30 08:21:46;;;;;;;7.63;4.43;;;;;;;13.83;52.72;102755.34;5072722;28;20056;-63
2022/04/30 08:24:12;;;;;;;9.25;4.68;;;;;;;13.75;53.39;102752.28;5056565;28;20052;-64
2022/04/30 08:26:37;;;;;;;9.05;4.68;;;;;;;13.71;52.73;102750.75;5056841;28;20506;-64
2022/04/30 08:29:03;;;;;;;7.32;4.43;;;;;;;13.56;52.75;102757.88;5052293;28;20406;-64
2022/04/30 08:31:28;;;;;;;9.07;4.47;;;;;;;13.50;53.27;102753.72;5052956;28;20045;-62
2022/04/30 08:33:56;;;;;;;7.35;4.35;;;;;;;13.35;53.11;102746.63;5052522;28;20060;-64
2022/04/30 08:36:22;;;;;;;9.10;4.50;;;;;;;13.35;53.86;102754.63;5053320;28;20041;-64
2022/04/30 08:38:47;;;;;;;7.03;4.90;;;;;;;13.32;53.35;102749.47;5053446;28;20630;-62
2022/04/30 08:41:13;;;;;;;7.28;4.55;;;;;;;13.29;53.18;102749.63;5073108;28;20385;-61
2022/04/30 08:43:40;;;;;;;8.00;4.18;;;;;;;13.20;52.58;102750.16;5053747;28;20044;-60
2022/04/30 08:46:06;;;;;;;9.25;4.78;;;;;;;13.13;53.66;102750.50;5045119;28;20028;-61
2022/04/30 08:48:31;;;;;;;8.25;4.57;;;;;;;13.07;53.22;102741.97;5072823;28;20085;-60
2022/04/30 08:50:57;;;;;;;5.25;4.40;;;;;;;12.98;54.04;102735.38;5068471;28;20037;-61
2022/04/30 08:53:22;;;;;;;10.85;4.60;;;;;;;12.88;54.26;102737.69;5051717;28;20115;-62
2022/04/30 08:55:47;;;;;;;8.98;4.97;;;;;;;12.82;54.23;102738.00;5051343;28;20468;-62
2022/04/30 08:58:13;;;;;;;10.00;5.38;;;;;;;12.84;54.71;102738.81;5051493;28;20033;-61
2022/04/30 09:00:43;;;;;;;7.40;5.40;;;;;;;12.82;55.59;102743.34;5050727;28;20036;-62
2022/04/30 09:03:13;;;;;;;9.23;5.38;;;;;;;12.93;54.96;102735.63;5051366;28;20048;-63
2022/04/30 09:05:39;;;;;;;9.00;5.18;;;;;;;12.91;54.83;102740.19;5051139;28;20036;-63
2022/04/30 09:08:05;;;;;;;5.90;4.97;;;;;;;12.97;55.58;102733.63;5033085;28;20075;-62
2022/04/30 09:10:34;;;;;;;7.97;5.30;;;;;;;13.00;55.67;102737.94;5051051;28;20512;-63
2022/04/30 09:13:14;;;;;;;10.10;5.32;;;;;;;13.05;55.89;102731.38;5051165;28;20041;-63
2022/04/30 09:15:42;;;;;;;7.10;4.80;;;;;;;13.02;54.78;102739.56;5050981;28;20064;-62
2022/04/30 09:18:08;;;;;;;8.07;4.40;;;;;;;12.95;54.05;102743.53;5051516;28;20045;-62
2022/04/30 09:20:51;;;;;;;9.75;4.68;;;;;;;12.99;55.11;102737.09;5050672;28;20129;-63
2022/04/30 09:23:30;;;;;;;9.05;3.72;;;;;;;12.91;54.66;102742.00;5062478;28;20367;-62
2022/04/30 09:25:57;;;;;;;6.47;4.32;;;;;;;12.86;53.90;102731.59;5057022;28;20072;-62
2022/04/30 09:28:24;;;;;;;5.55;4.20;;;;;;;12.89;54.23;102733.19;5050436;28;20072;-62
2022/04/30 09:30:49;;;;;;;6.32;4.30;;;;;;;12.95;53.94;102730.19;5051742;28;20483;-63
2022/04/30 09:33:18;;;;;;;8.05;4.82;;;;;;;12.88;53.63;102728.84;5053750;28;20044;-62
2022/04/30 09:38:37;;;;;;;8.90;5.10;;;;;;;12.96;54.28;102724.78;5071726;28;20009;-62
2022/04/30 09:41:07;;;;;;;9.77;5.20;;;;;;;12.96;54.38;102718.59;5069960;28;20032;-63
2022/04/30 09:43:36;;;;;;;8.13;5.13;;;;;;;12.88;53.31;102720.84;5054953;28;20106;-63
2022/04/30 09:46:04;;;;;;;9.77;4.80;;;;;;;12.94;53.31;102717.81;5053851;28;20045;-62
2022/04/30 09:54:00;;;;;;;9.27;5.35;;;;;;;13.06;53.54;102705.59;5052227;28;20426;-63
2022/04/30 09:56:37;;;;;;;7.70;4.80;;;;;;;13.25;54.01;102708.03;5052306;28;20439;-62
2022/04/30 09:59:11;;;;;;;14.57;4.78;;;;;;;13.33;51.71;102698.66;5052287;28;20033;-62
2022/04/30 10:01:39;;;;;;;6.15;4.57;;;;;;;13.33;51.68;102700.47;5062756;28;20068;-63
2022/04/30 10:04:12;;;;;;;9.27;4.32;;;;;;;13.47;51.28;102691.66;5057674;28;20402;-62
2022/04/30 10:06:43;;;;;;;6.78;4.18;;;;;;;13.40;50.39;102698.31;5071875;28;20073;-63
2022/04/30 10:09:20;;;;;;;8.73;4.30;;;;;;;13.53;49.63;102690.44;5071170;28;20047;-63
2022/04/30 10:12:26;;;;;;;6.65;3.78;;;;;;;13.61;50.41;102690.84;5052183;28;20043;-62
2022/04/30 10:15:24;;;;;;;7.88;3.40;;;;;;;13.76;50.00;102678.38;5050494;28;20064;-62
2022/04/30 10:17:55;;;;;;;7.47;4.28;;;;;;;13.75;49.38;102682.00;5021751;28;20049;-62
2022/04/30 10:20:35;;;;;;;8.07;4.35;;;;;;;13.79;48.69;102679.06;5050153;28;20178;-62
2022/04/30 10:23:02;;;;;;;5.18;4.57;;;;;;;13.86;48.58;102679.53;5049688;28;20048;-62
2022/04/30 10:25:34;;;;;;;6.28;4.07;;;;;;;13.85;48.55;102673.31;5066529;28;20311;-62
2022/04/30 10:28:23;;;;;;;4.25;3.60;;;;;;;13.88;47.30;102675.81;5050044;28;20102;-62
2022/04/30 10:31:01;;;;;;;7.47;3.50;;;;;;;13.94;46.23;102669.25;5053231;28;20122;-62
2022/04/30 10:33:27;;;;;;;4.00;3.37;;;;;;;13.88;45.98;102675.81;5053912;28;20037;-62
2022/04/30 10:36:07;;;;;;;3.78;3.28;;;;;;;14.08;47.09;102679.06;5051121;28;20071;-62
2022/04/30 10:38:33;;;;;;;8.48;3.90;;;;;;;14.14;45.32;102673.34;5051113;28;20065;-62
2022/04/30 10:41:00;;;;;;;5.68;3.40;;;;;;;14.08;45.91;102668.38;5053397;28;20055;-62
2022/04/30 10:43:36;;;;;;;5.00;3.75;;;;;;;14.15;45.38;102660.84;5052475;28;20040;-62
2022/04/30 10:46:03;;;;;;;7.78;3.50;;;;;;;14.57;44.73;102662.59;5052302;28;20045;-62
2022/04/30 10:48:29;;;;;;;3.90;3.30;;;;;;;14.95;43.00;102659.28;5055579;28;20033;-63
2022/04/30 10:51:03;;;;;;;6.00;3.60;;;;;;;15.34;42.58;102648.66;5052221;28;20107;-62
2022/04/30 10:53:28;;;;;;;5.65;3.20;;;;;;;15.72;41.77;102643.31;5052301;28;20126;-62
2022/04/30 10:55:54;;;;;;;6.03;3.55;;;;;;;15.94;39.26;102639.16;5052518;28;20406;-62
2022/04/30 10:58:28;;;;;;;5.20;3.40;;;;;;;16.33;40.32;102637.25;5058123;28;20040;-63
2022/04/30 11:00:54;;;;;;;7.43;3.50;;;;;;;16.65;40.08;102634.03;5052283;28;20041;-63
2022/04/30 11:03:25;;;;;;;4.40;3.35;;;;;;;16.74;38.86;102629.84;5052336;28;20237;-60
2022/04/30 11:05:51;;;;;;;3.65;3.20;;;;;;;16.81;37.22;102634.63;5052200;28;20040;-63
2022/04/30 11:08:16;;;;;;;4.47;3.10;;;;;;;17.01;36.80;102613.50;5054526;28;20528;-62
2022/04/30 11:10:52;;;;;;;4.40;3.03;;;;;;;17.42;39.27;102608.59;5051938;28;20310;-63
2022/04/30 11:13:18;;;;;;;4.70;3.28;;;;;;;17.76;36.94;102615.72;5052149;28;20667;-62
2022/04/30 11:15:44;;;;;;;9.23;3.65;;;;;;;18.08;35.17;102604.25;5051588;28;20511;-64
2022/04/30 11:18:10;;;;;;;5.38;3.33;;;;;;;18.37;35.60;102610.94;5052540;28;20079;-62
2022/04/30 11:20:36;;;;;;;4.00;2.83;;;;;;;18.48;34.07;102605.53;5037774;28;20045;-62
2022/04/30 11:23:01;;;;;;;5.32;2.95;;;;;;;18.63;34.06;102600.72;5072152;28;20112;-62
2022/04/30 11:25:37;;;;;;;3.58;2.90;;;;;;;18.98;35.42;102602.31;5060797;28;20033;-62
2022/04/30 11:28:07;;;;;;;5.50;3.35;;;;;;;19.21;35.62;102589.59;5052059;28;20088;-62
2022/04/30 11:30:40;;;;;;;3.67;2.85;;;;;;;19.59;33.65;102594.34;5053451;28;20487;-62
2022/04/30 11:33:07;;;;;;;3.55;2.83;;;;;;;19.64;32.21;102585.03;5053303;28;20033;-62
2022/04/30 11:35:33;;;;;;;4.90;3.05;;;;;;;19.39;30.98;102587.16;5053317;28;20124;-62
2022/04/30 11:37:58;;;;;;;4.05;2.92;;;;;;;19.69;32.53;102583.63;5053371;28;20129;-63
2022/04/30 11:40:26;;;;;;;5.68;2.95;;;;;;;20.01;33.78;102579.94;5052905;28;20037;-63
2022/04/30 11:42:58;;;;;;;4.80;2.92;;;;;;;19.84;33.70;102578.75;5052836;28;20044;-62
2022/04/30 11:45:25;;;;;;;3.85;2.88;;;;;;;19.69;31.61;102585.47;5052758;28;20403;-61
2022/04/30 11:47:51;;;;;;;5.55;3.13;;;;;;;19.39;32.52;102584.47;5052666;28;20124;-61
2022/04/30 11:50:16;;;;;;;11.18;3.80;;;;;;;19.10;33.50;102587.84;5052659;28;20129;-61
2022/04/30 11:52:42;;;;;;;6.65;4.20;;;;;;;18.93;34.63;102583.88;5052418;28;20037;-61
2022/04/30 11:55:08;;;;;;;10.32;4.30;;;;;;;18.79;35.91;102589.53;5052925;28;20033;-61
2022/04/30 11:57:34;;;;;;;7.57;4.40;;;;;;;18.44;36.26;102591.50;5052597;28;20369;-61